Flight Track Log - Related Links

Times and Time Zones

All times are in EDT time to prevent confusion due to time zone crossing. See the N516QS flight status page for this flight to view local times or setup timezone preferences in your user account.

Time Position Orientation Groundspeed Altitude Reporting Facility
EDT Latitude Longitude Course Direction KTS MPH feet Rate Location/Type
Tue 02:35:31 PM 43.5822 -110.7514 136° Southeast 191 220 7,900  Level Salt Lake Center
Tue 02:36:33 PM 43.5244 -110.7914 207° Southwest 228 262 10,400 3,097 Climbing Salt Lake Center
Tue 02:37:35 PM 43.4267 -110.8461 202° Southwest 312 359 14,300 3,242 Climbing Salt Lake Center
Tue 02:38:00 PM 43.0068 -110.7033 136° Southeast  Level FlightAware Approximate
Tue 02:38:37 PM 43.3350 -110.8072 163° South 357 411 17,100  Level Salt Lake Center
Tue 02:39:00 PM 42.9236 -110.5853 132° Southeast  Level FlightAware Approximate
Tue 02:39:39 PM 43.2681 -110.6939 129° Southeast 387 445 19,700  Level Salt Lake Center
Tue 02:40:00 PM 42.8414 -110.4662 136° Southeast  Level FlightAware Approximate
Tue 02:40:41 PM 43.1936 -110.5603 127° Southeast 407 468 22,600  Level Salt Lake Center
Tue 02:41:43 PM 43.1228 -110.4358 128° Southeast 429 494 25,000 2,468 Climbing Salt Lake Center
Tue 02:42:45 PM 43.0375 -110.2822 127° Southeast 452 520 27,700 2,371 Climbing Salt Lake Center
Tue 02:43:47 PM 42.9622 -110.1464 127° Southeast 467 537 29,900 2,468 Climbing Salt Lake Center
Tue 02:44:49 PM 42.8711 -109.9872 128° Southeast 475 547 32,800 2,468 Climbing Salt Lake Center
Tue 02:45:51 PM 42.7878 -109.8397 128° Southeast 472 543 35,000 1,056 Climbing Salt Lake Center
Tue 02:46:54 PM 42.7047 -109.6958 128° Southeast 499 574 35,000  Level Salt Lake Center
Tue 02:47:56 PM 42.6044 -109.5211 128° Southeast 519 597 35,000  Level Salt Lake Center
Tue 02:48:58 PM 42.5189 -109.3725 128° Southeast 522 601 35,000  Level Salt Lake Center
Tue 02:50:00 PM 42.4336 -109.2258 128° Southeast 519 597 35,000  Level Salt Lake Center
Tue 02:51:02 PM 42.3342 -109.0553 128° Southeast 516 594 35,000  Level Salt Lake Center
Tue 02:52:04 PM 42.2494 -108.9103 128° Southeast 514 592 35,000  Level Salt Lake Center
Tue 02:53:06 PM 42.1506 -108.7417 128° Southeast 511 588 35,000  Level Salt Lake Center
Tue 02:54:08 PM 42.0658 -108.5989 129° Southeast 509 586 35,000  Level Salt Lake Center
Tue 02:55:10 PM 41.9667 -108.4331 129° Southeast 507 583 35,000  Level Salt Lake Center
Tue 02:56:12 PM 41.8817 -108.2917 129° Southeast 507 583 35,000  Level Salt Lake Center
Tue 02:56:44 PM 41.8381 -108.2175 128° Southeast 505 581 35,000  Level Denver Center
Tue 02:57:46 PM 41.7386 -108.0533 129° Southeast 506 582 35,000  Level Denver Center
Tue 02:58:16 PM 41.6969 -107.9864 130° Southeast 505 581 35,000  Level Salt Lake Center
Tue 02:59:18 PM 41.6119 -107.8464 129° Southeast 505 581 35,000  Level Salt Lake Center
Tue 02:59:52 PM 41.5550 -107.7511 129° Southeast 504 580 35,000  Level Denver Center
Tue 03:00:54 PM 41.4700 -107.6131 129° Southeast 502 578 35,000  Level Denver Center
Tue 03:01:56 PM 41.3703 -107.4519 129° Southeast 504 580 35,000  Level Denver Center
Tue 03:02:58 PM 41.2856 -107.3161 130° Southeast 500 575 35,000  Level Denver Center
Tue 03:04:00 PM 41.1964 -107.1508 126° Southeast 493 567 35,000  Level Denver Center
Tue 03:05:02 PM 41.1258 -107.0031 122° Southeast 493 567 35,000  Level Denver Center
Tue 03:06:04 PM 41.0425 -106.8325 123° Southeast 494 568 35,000  Level Denver Center
Tue 03:07:18 PM 40.9478 -106.6342 122° Southeast 499 574 35,000  Level Denver Center
Tue 03:08:20 PM 40.8778 -106.4864 122° Southeast 497 572 35,000 -629 Level Denver Center
Tue 03:09:22 PM 40.8044 -106.3408 124° Southeast 498 573 33,700 -1,790 Descending Denver Center
Tue 03:10:24 PM 40.7208 -106.1683 123° Southeast 479 551 31,300 -2,032 Descending Denver Center
Tue 03:11:26 PM 40.6583 -106.0397 123° Southeast 471 542 29,500 -1,790 Descending Denver Center
Tue 03:12:28 PM 40.5883 -105.8992 123° Southeast 462 532 27,600 -2,032 Descending Denver Center
Tue 03:13:30 PM 40.5056 -105.7350 124° Southeast 452 520 25,300 -2,032 Descending Denver Center
Tue 03:14:32 PM 40.4408 -105.6036 123° Southeast 437 503 23,400 -1,839 Descending Denver Center
Tue 03:15:34 PM 40.3761 -105.4775 124° Southeast 424 488 21,500 -1,935 Descending Denver Center
Tue 03:16:36 PM 40.2942 -105.3683 135° Southeast 392 451 19,400 -1,839 Descending Denver Center
Tue 03:17:38 PM 40.1892 -105.3228 162° South 391 450 17,700 -2,032 Descending Denver Center
Tue 03:18:40 PM 40.0775 -105.2772 163° South 389 448 15,200 -2,323 Descending Denver Center
Tue 03:19:42 PM 39.9800 -105.2364 162° South 371 427 12,900 -2,371 Descending Denver Center
Tue 03:20:44 PM 39.8836 -105.1931 161° South 340 391 10,300 -1,500 Descending Denver Center
Tue 03:21:46 PM 39.8192 -105.1433 149° Southeast 272 313 9,800 -968 Descending Denver Center
Tue 03:22:48 PM 39.7642 -105.0764 137° Southeast 254 292 8,300 -871 Descending Denver Center
Tue 03:23:50 PM 39.7264 -105.0100 126° Southeast 229 264 8,000 -194 Descending Denver Center
Tue 03:24:52 PM 39.6964 -104.9411 119° Southeast 203 234 7,900 -484 Descending Denver Center
Tue 03:25:54 PM 39.6639 -104.8861 127° Southeast 194 223 7,000 -581 Descending Denver Center
Tue 03:26:56 PM 39.6289 -104.8531 144° Southeast 143 165 6,700 -484 Descending Denver Center
Tue 03:27:58 PM 39.5942 -104.8522 179° South 124 143 6,000 -677 Descending Denver Center
Tue 03:30:00 PM 39.5667 -104.8333 155° Southeast  Level FlightAware Approximate
Tue 03:37:00 PM 39.5701 -104.8493 155° Southeast  Level Estimated

Login

Don't have an account? Register now (free) for customized features, flight alerts, and more!